Time;durP1;ratioP1;P1;durP2;ratioP2;P2;SDS_P1;SDS_P2;PMS_P1;PMS_P2;Temp;Humidity;BMP_temperature;BMP_pressure;BME280_temperature;BME280_humidity;BME280_pressure;Samples;Min_cycle;Max_cycle;Signal;HPM_P1;HPM_P2
2023/08/03 00:01:11;;;;;;;3.95;1.00;;;;;;;16.08;100.00;98923.81;6254315;28;20045;-74
2023/08/03 00:04:13;;;;;;;5.07;1.33;;;;;;;16.02;100.00;98913.84;6253827;28;20052;-76
2023/08/03 00:07:14;;;;;;;4.63;0.90;;;;;;;16.07;100.00;98911.56;6253964;28;20492;-76
2023/08/03 00:10:18;;;;;;;1.65;0.88;;;;;;;16.07;100.00;98912.38;6252713;28;20042;-76
2023/08/03 00:13:19;;;;;;;3.38;1.13;;;;;;;16.07;100.00;98906.25;6253353;28;20386;-77
2023/08/03 00:16:21;;;;;;;4.45;1.13;;;;;;;16.07;100.00;98911.56;6253844;28;20060;-76
2023/08/03 00:19:22;;;;;;;2.00;1.00;;;;;;;16.05;100.00;98901.13;6253672;28;20049;-76
2023/08/03 00:22:24;;;;;;;2.08;0.93;;;;;;;16.06;100.00;98894.00;6253552;28;20052;-74
2023/08/03 00:25:30;;;;;;;7.45;1.00;;;;;;;16.07;100.00;98899.13;6253390;28;20053;-74
2023/08/03 00:28:31;;;;;;;1.15;0.63;;;;;;;16.04;100.00;98898.66;6253814;28;20053;-75
2023/08/03 00:31:32;;;;;;;3.50;0.70;;;;;;;16.07;100.00;98901.78;6253270;28;20358;-74
2023/08/03 00:34:34;;;;;;;1.67;0.82;;;;;;;16.06;100.00;98897.47;6253292;28;20072;-74
2023/08/03 00:37:37;;;;;;;1.88;0.80;;;;;;;16.07;100.00;98893.81;6253176;28;20049;-73
2023/08/03 00:40:40;;;;;;;3.55;1.25;;;;;;;16.06;100.00;98875.44;6254770;28;20088;-74
2023/08/03 00:43:42;;;;;;;1.55;0.75;;;;;;;16.09;100.00;98875.13;6277685;28;20044;-74
2023/08/03 00:46:43;;;;;;;4.25;0.80;;;;;;;16.07;100.00;98869.16;6278042;28;20100;-74
2023/08/03 00:49:44;;;;;;;1.00;0.65;;;;;;;16.04;100.00;98862.38;6277658;28;20053;-75
2023/08/03 00:52:46;;;;;;;2.88;1.08;;;;;;;16.05;100.00;98858.72;6278308;28;20041;-76
2023/08/03 00:55:49;;;;;;;2.45;1.20;;;;;;;15.98;100.00;98847.09;6288281;28;20456;-74
2023/08/03 00:58:50;;;;;;;2.60;0.90;;;;;;;16.03;100.00;98843.97;6293604;28;20053;-74
2023/08/03 01:01:51;;;;;;;1.88;1.05;;;;;;;16.03;100.00;98836.03;6294052;28;20048;-76
2023/08/03 01:04:53;;;;;;;1.33;0.82;;;;;;;15.99;100.00;98830.25;6301974;28;20045;-74
2023/08/03 01:07:56;;;;;;;2.28;1.13;;;;;;;15.98;100.00;98828.56;6302210;28;20094;-74
2023/08/03 01:10:59;;;;;;;3.13;0.70;;;;;;;15.97;100.00;98829.56;6302002;28;20352;-74
2023/08/03 01:14:00;;;;;;;4.35;0.85;;;;;;;15.96;100.00;98820.78;6301927;28;20056;-74
2023/08/03 01:17:02;;;;;;;4.78;1.13;;;;;;;15.91;100.00;98815.16;6302050;28;20056;-76
2023/08/03 01:20:04;;;;;;;1.58;0.80;;;;;;;15.93;100.00;98817.63;6301817;28;20475;-76
2023/08/03 01:23:08;;;;;;;2.33;0.68;;;;;;;15.92;100.00;98813.34;6301021;28;20059;-76
2023/08/03 01:26:09;;;;;;;4.63;0.70;;;;;;;15.87;100.00;98803.22;6301718;28;20357;-73
2023/08/03 01:29:12;;;;;;;2.42;0.63;;;;;;;15.87;100.00;98805.06;6301618;28;20059;-75
2023/08/03 01:32:13;;;;;;;2.05;0.73;;;;;;;15.87;100.00;98805.06;6301718;28;20048;-73
2023/08/03 01:35:15;;;;;;;3.30;0.70;;;;;;;15.87;100.00;98802.41;6301726;28;20056;-76
2023/08/03 01:38:17;;;;;;;6.18;1.00;;;;;;;15.88;100.00;98793.44;6301242;28;20361;-76
2023/08/03 01:41:19;;;;;;;3.42;0.60;;;;;;;15.89;100.00;98795.09;6301472;28;20056;-76
2023/08/03 01:44:24;;;;;;;1.48;0.90;;;;;;;15.86;100.00;98787.50;6301013;28;20052;-75
2023/08/03 01:47:26;;;;;;;3.28;0.98;;;;;;;15.84;100.00;98790.28;6301296;28;20052;-73
2023/08/03 01:50:27;;;;;;;0.88;0.70;;;;;;;15.82;100.00;98788.81;6300923;28;20486;-76
2023/08/03 01:53:30;;;;;;;6.25;0.75;;;;;;;15.82;100.00;98787.00;6300952;28;20052;-76
2023/08/03 01:56:31;;;;;;;4.32;0.80;;;;;;;15.82;100.00;98788.81;6300920;28;20613;-76
2023/08/03 01:59:33;;;;;;;1.15;0.70;;;;;;;15.82;100.00;98779.06;6301078;28;20053;-76
2023/08/03 02:02:34;;;;;;;2.00;0.70;;;;;;;15.86;100.00;98785.69;6300807;28;20298;-76
2023/08/03 02:05:35;;;;;;;0.73;0.50;;;;;;;15.86;100.00;98775.09;6300551;28;20449;-73
2023/08/03 02:08:38;;;;;;;1.70;1.33;;;;;;;15.87;100.00;98767.97;6300756;28;20074;-76
2023/08/03 02:11:40;;;;;;;1.17;0.77;;;;;;;15.87;100.00;98767.97;6300516;28;20376;-74
2023/08/03 02:14:41;;;;;;;1.80;0.98;;;;;;;15.91;100.00;98762.16;6300533;28;20048;-75
2023/08/03 02:17:43;;;;;;;1.40;0.47;;;;;;;15.90;100.00;98763.16;6300415;28;20374;-75
2023/08/03 02:20:45;;;;;;;4.90;0.70;;;;;;;15.88;100.00;98756.38;6300654;28;20346;-76
2023/08/03 02:23:48;;;;;;;2.70;0.60;;;;;;;15.87;100.00;98763.50;6300197;28;20189;-73
2023/08/03 02:26:50;;;;;;;1.92;0.90;;;;;;;15.86;100.00;98758.38;6300632;28;20194;-74
2023/08/03 02:29:51;;;;;;;1.40;0.70;;;;;;;15.87;100.00;98750.25;6300593;28;20060;-74
2023/08/03 02:32:53;;;;;;;2.13;0.70;;;;;;;15.81;100.00;98756.22;6300201;28;20353;-76
2023/08/03 02:35:54;;;;;;;1.08;0.60;;;;;;;15.79;100.00;98746.75;6298894;28;20060;-76
2023/08/03 02:38:57;;;;;;;2.05;0.60;;;;;;;15.80;100.00;98759.00;6300225;28;20049;-74
2023/08/03 02:41:58;;;;;;;1.15;0.52;;;;;;;15.78;100.00;98750.41;6300452;28;20045;-75
2023/08/03 02:45:00;;;;;;;1.00;0.63;;;;;;;15.69;100.00;98747.75;6299889;28;20356;-75
2023/08/03 02:48:01;;;;;;;0.50;0.50;;;;;;;15.64;100.00;98742.13;6300099;28;20078;-76
2023/08/03 02:51:02;;;;;;;1.52;0.80;;;;;;;15.66;100.00;98734.81;6300048;28;20135;-75
2023/08/03 02:54:05;;;;;;;2.35;0.70;;;;;;;15.67;100.00;98740.97;6288671;28;20352;-74
2023/08/03 02:57:07;;;;;;;1.25;0.60;;;;;;;15.65;100.00;98738.47;6284889;28;20045;-74
2023/08/03 03:00:09;;;;;;;0.60;0.47;;;;;;;15.62;100.00;98725.50;6291510;28;20048;-74
2023/08/03 03:03:10;;;;;;;3.58;1.10;;;;;;;15.62;100.00;98725.50;6299692;28;20075;-74
2023/08/03 03:06:12;;;;;;;2.10;0.70;;;;;;;15.62;100.00;98727.34;6299952;28;20048;-74
2023/08/03 03:09:15;;;;;;;0.93;0.70;;;;;;;15.61;100.00;98734.47;6300191;28;20189;-74
2023/08/03 03:12:16;;;;;;;0.68;0.50;;;;;;;15.59;100.00;98722.38;6299761;28;20060;-75
2023/08/03 03:15:17;;;;;;;0.88;0.70;;;;;;;15.59;100.00;98733.81;6299915;28;20056;-75
2023/08/03 03:18:19;;;;;;;0.43;0.43;;;;;;;15.56;100.00;98731.47;6299790;28;20045;-75
2023/08/03 03:21:20;;;;;;;1.48;0.70;;;;;;;15.53;100.00;98730.97;6299986;28;20044;-76
2023/08/03 03:24:23;;;;;;;1.77;0.75;;;;;;;15.55;100.00;98731.66;6299539;28;20059;-77
2023/08/03 03:27:25;;;;;;;3.08;0.68;;;;;;;15.53;100.00;98737.09;6289609;28;20057;-76
2023/08/03 03:30:26;;;;;;;1.55;0.52;;;;;;;15.54;100.00;98730.81;6271460;28;20056;-75
2023/08/03 03:33:27;;;;;;;0.60;0.60;;;;;;;15.53;100.00;98731.78;6274057;28;20052;-76
2023/08/03 03:36:29;;;;;;;0.50;0.50;;;;;;;15.51;100.00;98741.72;6274757;28;20060;-74
2023/08/03 03:39:32;;;;;;;2.45;0.60;;;;;;;15.51;100.00;98733.78;6263577;28;20042;-76
2023/08/03 03:42:33;;;;;;;1.00;0.50;;;;;;;15.57;100.00;98740.25;6257036;28;20041;-74
2023/08/03 03:45:35;;;;;;;1.95;0.70;;;;;;;15.59;100.00;98739.09;6256702;28;20057;-78
2023/08/03 03:48:36;;;;;;;2.25;0.52;;;;;;;15.54;100.00;98737.94;6254260;28;20135;-80
2023/08/03 03:51:37;;;;;;;0.75;0.57;;;;;;;15.50;100.00;98748.03;6261434;28;20044;-79
2023/08/03 03:54:40;;;;;;;1.67;0.70;;;;;;;15.55;100.00;98755.47;6254275;28;20049;-79
2023/08/03 03:57:42;;;;;;;1.38;0.60;;;;;;;15.56;100.00;98754.47;6254128;28;20076;-80
2023/08/03 04:00:43;;;;;;;0.55;0.50;;;;;;;15.56;100.00;98744.72;6254172;28;20115;-80
2023/08/03 04:03:45;;;;;;;0.98;0.60;;;;;;;15.56;100.00;98757.13;6253973;28;20049;-76
2023/08/03 04:06:46;;;;;;;3.50;0.90;;;;;;;15.51;100.00;98762.91;6254123;28;20175;-80
2023/08/03 04:09:49;;;;;;;1.00;0.70;;;;;;;15.53;100.00;98771.50;6256843;28;20136;-80
2023/08/03 04:12:50;;;;;;;0.73;0.73;;;;;;;15.54;100.00;98764.41;6265108;28;20445;-80
2023/08/03 04:15:52;;;;;;;1.00;0.90;;;;;;;15.56;100.00;98767.72;6265974;28;20053;-81
2023/08/03 04:18:53;;;;;;;1.70;1.00;;;;;;;15.62;100.00;98775.81;6265316;28;20453;-79
2023/08/03 04:21:54;;;;;;;3.17;1.20;;;;;;;15.59;100.00;98778.00;6265608;28;20063;-78
2023/08/03 04:24:57;;;;;;;1.48;1.23;;;;;;;15.56;100.00;98779.13;6278155;22;20045;-76
2023/08/03 04:27:59;;;;;;;1.55;1.33;;;;;;;15.59;100.00;98784.13;6253795;28;20049;-76
2023/08/03 04:31:00;;;;;;;4.72;1.55;;;;;;;15.66;100.00;98790.44;6253664;28;20064;-77
2023/08/03 04:34:01;;;;;;;4.57;1.70;;;;;;;15.67;100.00;98800.06;6253309;28;20057;-78
2023/08/03 04:37:03;;;;;;;3.00;1.38;;;;;;;15.68;100.00;98791.13;6253379;28;20060;-77
2023/08/03 04:40:07;;;;;;;1.70;1.60;;;;;;;15.69;100.00;98810.47;6253815;28;20437;-76
2023/08/03 04:43:09;;;;;;;3.40;1.88;;;;;;;15.64;100.00;98804.84;6252920;28;20365;-76
2023/08/03 04:46:10;;;;;;;6.13;2.10;;;;;;;15.68;100.00;98817.59;6253235;28;20057;-76
2023/08/03 04:49:13;;;;;;;4.90;1.92;;;;;;;15.65;100.00;98822.38;6253160;28;20472;-76
2023/08/03 04:52:14;;;;;;;2.15;1.80;;;;;;;15.67;100.00;98828.34;6252450;28;20052;-77
2023/08/03 04:55:17;;;;;;;2.40;1.60;;;;;;;15.66;100.00;98824.84;6267232;28;20052;-76
2023/08/03 04:58:18;;;;;;;4.72;2.40;;;;;;;15.63;100.00;98834.94;6262172;28;20061;-76
2023/08/03 05:01:20;;;;;;;2.47;1.77;;;;;;;15.66;100.00;98842.56;6277532;28;20045;-76
2023/08/03 05:04:21;;;;;;;1.67;1.58;;;;;;;15.71;100.00;98829.66;6277162;28;20366;-76
2023/08/03 05:07:23;;;;;;;2.25;1.67;;;;;;;15.73;100.00;98836.47;6277685;28;20059;-76
2023/08/03 05:10:25;;;;;;;1.55;1.42;;;;;;;15.71;100.00;98841.13;6277323;28;20349;-76
2023/08/03 05:13:27;;;;;;;1.63;1.30;;;;;;;15.75;100.00;98838.13;6277106;28;20048;-76
2023/08/03 05:16:28;;;;;;;1.23;1.13;;;;;;;15.71;100.00;98841.13;6277343;28;20067;-76
2023/08/03 05:19:30;;;;;;;2.42;1.98;;;;;;;15.79;100.00;98834.16;6277522;28;20074;-76
2023/08/03 05:22:31;;;;;;;2.55;1.30;;;;;;;15.81;100.00;98854.22;6276925;28;20041;-76
2023/08/03 05:25:34;;;;;;;2.85;1.35;;;;;;;15.84;100.00;98861.00;6276820;28;20460;-78
2023/08/03 05:28:35;;;;;;;2.25;1.10;;;;;;;15.84;100.00;98861.00;6277280;28;20441;-76
2023/08/03 05:31:37;;;;;;;1.30;1.20;;;;;;;15.89;100.00;98874.56;6276705;28;20056;-76
2023/08/03 05:34:38;;;;;;;1.92;1.33;;;;;;;15.83;100.00;98880.53;6276426;28;20396;-77
2023/08/03 05:37:40;;;;;;;1.48;1.10;;;;;;;15.87;100.00;98884.53;6276758;28;20453;-76
2023/08/03 05:40:43;;;;;;;2.63;1.50;;;;;;;15.92;100.00;98880.38;6276926;28;20056;-75
2023/08/03 05:43:46;;;;;;;1.92;1.20;;;;;;;15.89;100.00;98879.88;6276256;28;20049;-76
2023/08/03 05:46:48;;;;;;;1.90;1.35;;;;;;;15.90;100.00;98882.38;6276896;28;20055;-75
2023/08/03 05:49:49;;;;;;;2.17;1.05;;;;;;;15.88;100.00;98887.00;6276628;28;20361;-76
2023/08/03 05:52:51;;;;;;;1.83;1.40;;;;;;;15.89;100.00;98880.69;6276092;28;20053;-75
2023/08/03 05:55:54;;;;;;;2.30;1.33;;;;;;;15.94;100.00;98896.09;6276125;28;20529;-75
2023/08/03 05:58:55;;;;;;;5.03;1.25;;;;;;;15.99;100.00;98901.78;6276154;28;20044;-75
2023/08/03 06:01:57;;;;;;;3.08;1.30;;;;;;;16.00;100.00;98899.97;6276633;28;20055;-75
2023/08/03 06:04:58;;;;;;;1.38;1.25;;;;;;;16.04;100.00;98904.78;6275986;28;20060;-77
2023/08/03 06:07:59;;;;;;;1.70;1.13;;;;;;;16.06;100.00;98902.78;6276142;28;20048;-75
2023/08/03 06:11:05;;;;;;;2.10;1.15;;;;;;;16.13;100.00;98911.75;6275812;28;20471;-75
2023/08/03 06:14:08;;;;;;;1.65;1.35;;;;;;;16.08;100.00;98914.06;6275645;28;20041;-74
2023/08/03 06:17:10;;;;;;;1.33;1.20;;;;;;;16.09;100.00;98920.19;6275888;28;20077;-75
2023/08/03 06:20:13;;;;;;;1.70;1.02;;;;;;;16.12;100.00;98927.78;6275877;28;20055;-75
2023/08/03 06:23:18;;;;;;;2.38;1.27;;;;;;;16.11;100.00;98934.91;6275246;28;20052;-74
2023/08/03 06:26:21;;;;;;;2.42;1.67;;;;;;;16.00;100.00;98940.53;6275836;28;20055;-74
2023/08/03 06:29:23;;;;;;;4.07;2.17;;;;;;;16.04;100.00;98949.81;6275635;28;20422;-74
2023/08/03 06:32:29;;;;;;;2.78;2.30;;;;;;;16.02;100.00;98954.44;6275424;28;20053;-75
2023/08/03 06:35:37;;;;;;;4.82;2.70;;;;;;;16.00;100.00;98958.25;6275443;28;20049;-76
2023/08/03 06:38:39;;;;;;;3.83;2.67;;;;;;;16.03;100.00;98953.44;6275346;28;20056;-75
2023/08/03 06:41:42;;;;;;;4.15;2.40;;;;;;;16.07;100.00;98977.78;6275438;28;20060;-74
2023/08/03 06:44:43;;;;;;;4.43;2.55;;;;;;;16.02;100.00;98967.69;6274840;28;20055;-79
2023/08/03 06:47:45;;;;;;;3.60;2.70;;;;;;;15.99;100.00;98960.06;6275418;28;20449;-78
2023/08/03 06:50:46;;;;;;;6.30;2.88;;;;;;;15.98;100.00;98974.28;6275317;28;20048;-78
2023/08/03 06:53:48;;;;;;;7.32;2.95;;;;;;;16.00;100.00;98969.66;6267728;28;20044;-77
2023/08/03 06:56:50;;;;;;;3.40;2.67;;;;;;;16.02;100.00;98966.84;6263711;28;20056;-78
2023/08/03 06:59:52;;;;;;;4.80;3.10;;;;;;;15.98;100.00;98977.75;6266908;28;20056;-78
2023/08/03 07:02:54;;;;;;;5.13;2.83;;;;;;;16.05;100.00;98964.72;6275114;28;20056;-77
2023/08/03 07:05:55;;;;;;;4.68;3.15;;;;;;;16.07;100.00;98972.50;6274931;28;20438;-78
2023/08/03 07:08:56;;;;;;;7.18;2.72;;;;;;;16.09;100.00;98970.53;6275394;28;20056;-77
2023/08/03 07:12:00;;;;;;;5.53;2.70;;;;;;;16.10;100.00;98973.00;6274862;28;20052;-76
2023/08/03 07:15:01;;;;;;;4.85;2.65;;;;;;;16.10;100.00;98980.97;6274777;28;20045;-77
2023/08/03 07:18:04;;;;;;;3.88;2.40;;;;;;;16.14;100.00;98995.56;6275084;28;20107;-77
2023/08/03 07:21:06;;;;;;;3.65;2.30;;;;;;;16.19;100.00;98984.47;6277515;28;20476;-72
2023/08/03 07:24:07;;;;;;;8.32;2.20;;;;;;;16.15;100.00;98997.22;6279421;28;20048;-74
2023/08/03 07:27:10;;;;;;;6.00;2.38;;;;;;;16.16;100.00;98988.25;6280013;28;20056;-76
2023/08/03 07:30:12;;;;;;;4.00;2.75;;;;;;;16.25;100.00;98991.78;6258472;28;20049;-76
2023/08/03 07:33:13;;;;;;;4.35;1.90;;;;;;;16.30;100.00;98994.75;6249200;28;20076;-72
2023/08/03 07:36:19;;;;;;;3.60;1.77;;;;;;;16.27;100.00;98999.59;6252623;28;20056;-72
2023/08/03 07:39:20;;;;;;;5.45;1.95;;;;;;;16.27;100.00;99004.88;6251836;28;20049;-73
2023/08/03 07:42:23;;;;;;;5.70;2.00;;;;;;;16.31;100.00;99006.22;6265238;28;20048;-74
2023/08/03 07:45:24;;;;;;;3.03;1.50;;;;;;;16.29;100.00;99010.84;6273420;28;20050;-74
2023/08/03 07:48:26;;;;;;;1.98;1.58;;;;;;;16.26;100.00;99014.66;6261998;28;20366;-75
2023/08/03 07:51:27;;;;;;;1.90;1.50;;;;;;;16.30;100.00;99020.44;6267519;28;20168;-75
2023/08/03 07:54:29;;;;;;;4.45;1.83;;;;;;;16.18;100.00;99015.44;6265174;28;20122;-75
2023/08/03 07:57:33;;;;;;;1.50;1.40;;;;;;;16.24;100.00;99032.53;6266139;28;20052;-75
2023/08/03 08:00:34;;;;;;;1.63;1.40;;;;;;;16.16;100.00;99032.50;6279060;28;20064;-74
2023/08/03 08:03:37;;;;;;;2.30;1.20;;;;;;;16.06;100.00;99037.91;6272837;28;20057;-75
2023/08/03 08:06:38;;;;;;;2.42;1.35;;;;;;;16.05;100.00;99044.22;6254184;28;20054;-75
2023/08/03 08:09:39;;;;;;;1.77;1.50;;;;;;;16.05;100.00;99054.00;6257237;28;20044;-75
2023/08/03 08:12:42;;;;;;;1.60;1.50;;;;;;;15.95;100.00;99062.88;6270288;28;20049;-75
2023/08/03 08:15:43;;;;;;;1.88;1.30;;;;;;;15.94;100.00;99055.94;6269274;28;20051;-74
2023/08/03 08:18:45;;;;;;;1.77;1.60;;;;;;;15.93;100.00;99077.25;6278614;28;20049;-74
2023/08/03 08:21:46;;;;;;;2.60;1.98;;;;;;;15.92;100.00;99070.31;6278381;28;20060;-75
2023/08/03 08:24:48;;;;;;;3.47;2.15;;;;;;;15.93;100.00;99080.75;6277814;28;20045;-74
2023/08/03 08:27:52;;;;;;;5.38;2.25;;;;;;;15.97;100.00;99087.38;6278322;28;20056;-74
2023/08/03 08:30:54;;;;;;;2.83;2.05;;;;;;;16.03;100.00;99087.75;6271687;28;20053;-75
2023/08/03 08:33:55;;;;;;;3.35;2.38;;;;;;;16.15;100.00;99091.78;6268788;28;20472;-75
2023/08/03 08:36:57;;;;;;;4.82;1.83;;;;;;;16.18;100.00;99092.31;6277850;28;20056;-75
2023/08/03 08:39:58;;;;;;;2.65;1.90;;;;;;;16.25;100.00;99100.44;6253768;28;20358;-75
2023/08/03 08:43:02;;;;;;;4.63;2.17;;;;;;;16.35;100.00;99108.28;6253047;28;20048;-74
2023/08/03 08:46:03;;;;;;;2.40;1.88;;;;;;;16.35;100.00;99102.97;6253072;28;20461;-75
2023/08/03 08:49:04;;;;;;;1.60;1.50;;;;;;;16.40;100.00;99112.13;6253057;28;20046;-76
2023/08/03 08:52:08;;;;;;;1.92;1.70;;;;;;;16.43;100.00;99109.16;6255400;28;20064;-74
2023/08/03 08:55:14;;;;;;;2.15;1.95;;;;;;;16.52;100.00;99110.00;6244461;28;20053;-76
2023/08/03 08:58:16;;;;;;;2.22;1.70;;;;;;;16.52;100.00;99115.31;6254185;28;20053;-76
2023/08/03 09:01:18;;;;;;;2.58;1.40;;;;;;;16.67;100.00;99120.88;6269902;28;20361;-73
2023/08/03 09:04:30;;;;;;;3.75;1.63;;;;;;;16.79;100.00;99116.94;6277084;28;20048;-76
2023/08/03 09:07:31;;;;;;;1.08;0.98;;;;;;;16.88;100.00;99131.06;6277451;28;20472;-76
2023/08/03 09:10:48;;;;;;;1.42;1.00;;;;;;;16.89;100.00;99132.72;6277099;28;20056;-75
2023/08/03 09:13:55;;;;;;;1.27;1.10;;;;;;;16.90;100.00;99129.09;6276778;28;20445;-77
2023/08/03 09:17:16;;;;;;;1.00;0.90;;;;;;;16.94;100.00;99135.69;6272145;28;20068;-76
2023/08/03 09:20:25;;;;;;;1.30;1.00;;;;;;;16.98;100.00;99147.66;6249520;28;20437;-74
2023/08/03 09:23:32;;;;;;;;;;;;;;;16.98;100.00;99145.00;6263782;28;20126;-76
2023/08/03 09:26:33;;;;;;;0.88;0.80;;;;;;;17.04;100.00;99140.91;6277075;28;19928;-74
2023/08/03 09:29:36;;;;;;;1.40;0.80;;;;;;;17.12;100.00;99155.00;6277093;28;20441;-74
2023/08/03 09:32:38;;;;;;;0.50;0.50;;;;;;;17.12;100.00;99156.81;6277078;28;20055;-75
2023/08/03 09:35:39;;;;;;;0.40;0.40;;;;;;;17.12;100.00;99155.00;6262639;28;20433;-76
2023/08/03 09:38:42;;;;;;;0.50;0.50;;;;;;;17.11;100.00;99155.16;6262887;28;20564;-77
2023/08/03 09:41:43;;;;;;;1.80;0.65;;;;;;;17.18;100.00;99156.19;6264458;28;20055;-75
2023/08/03 09:44:47;;;;;;;0.55;0.52;;;;;;;17.15;100.00;99161.81;6276028;28;20124;-75
2023/08/03 09:47:50;;;;;;;0.57;0.57;;;;;;;17.13;100.00;99164.63;6267008;28;20049;-75
2023/08/03 09:50:53;;;;;;;0.63;0.50;;;;;;;17.27;100.00;99172.97;6255948;28;20064;-74
2023/08/03 09:53:59;;;;;;;1.40;0.57;;;;;;;17.24;100.00;99180.25;6263493;28;20060;-74
2023/08/03 09:57:04;;;;;;;0.65;0.63;;;;;;;17.29;100.00;99184.22;6260723;28;20064;-74
2023/08/03 10:00:08;;;;;;;1.20;0.63;;;;;;;17.27;100.00;99181.75;6266839;28;20049;-75
2023/08/03 10:03:12;;;;;;;0.68;0.50;;;;;;;17.45;100.00;99181.63;6259330;28;20049;-75
2023/08/03 10:06:17;;;;;;;1.15;0.50;;;;;;;17.57;100.00;99187.41;6259725;28;20365;-75
2023/08/03 10:09:25;;;;;;;0.40;0.40;;;;;;;17.62;100.00;99201.03;6273118;28;20354;-75
2023/08/03 10:12:35;;;;;;;0.20;0.20;;;;;;;17.83;100.00;99187.31;6264969;28;20048;-75
2023/08/03 10:15:38;;;;;;;0.15;0.15;;;;;;;17.92;100.00;99192.44;6260346;28;20049;-75
2023/08/03 10:18:41;;;;;;;2.42;0.30;;;;;;;18.03;100.00;99190.44;6251008;28;20046;-74
2023/08/03 10:21:42;;;;;;;0.30;0.30;;;;;;;17.94;100.00;99194.91;6250915;28;20366;-74
2023/08/03 10:25:15;;;;;;;0.30;0.30;;;;;;;18.09;100.00;99195.94;6272241;22;20057;-81
2023/08/03 10:28:17;;;;;;;1.23;0.30;;;;;;;18.13;100.00;99196.44;6278121;28;20052;-78
2023/08/03 10:31:19;;;;;;;0.30;0.30;;;;;;;18.09;100.00;99224.34;6284376;28;20053;-79
2023/08/03 10:34:25;;;;;;;0.20;0.20;;;;;;;18.02;100.00;99223.34;6282728;28;20395;-78
2023/08/03 10:37:27;;;;;;;3.05;0.22;;;;;;;17.99;100.00;99225.34;6290958;28;20130;-79
2023/08/03 10:40:28;;;;;;;0.32;0.30;;;;;;;18.14;100.00;99228.16;6275583;28;20053;-78
2023/08/03 10:43:30;;;;;;;0.30;0.20;;;;;;;18.29;100.00;99240.75;6274950;28;20049;-77
2023/08/03 10:46:33;;;;;;;0.82;0.40;;;;;;;18.30;100.00;99245.06;6275894;28;20052;-78
2023/08/03 10:49:49;;;;;;;0.38;0.30;;;;;;;18.18;100.00;99260.56;6275520;28;20052;-80
2023/08/03 10:52:51;;;;;;;1.08;0.40;;;;;;;18.23;100.00;99261.72;6288816;28;20044;-78
2023/08/03 10:56:04;;;;;;;0.93;0.40;;;;;;;18.22;100.00;99262.72;6299460;28;20045;-78
2023/08/03 10:59:06;;;;;;;0.68;0.45;;;;;;;18.18;100.00;99280.00;6295910;28;20048;-79
2023/08/03 11:02:13;;;;;;;0.35;0.35;;;;;;;18.16;100.00;99259.88;6281069;28;20463;-77
2023/08/03 11:05:15;;;;;;;0.38;0.32;;;;;;;18.25;100.00;99254.38;6275592;28;20049;-78
2023/08/03 11:08:17;;;;;;;0.30;0.30;;;;;;;18.34;100.00;99263.19;6299926;28;20441;-76
2023/08/03 11:11:22;;;;;;;0.50;0.40;;;;;;;18.49;100.00;99260.69;6292398;28;20052;-80
2023/08/03 11:14:23;;;;;;;0.70;0.60;;;;;;;18.61;100.00;99274.47;6290240;28;20049;-78
2023/08/03 11:17:28;;;;;;;0.30;0.30;;;;;;;18.67;100.00;99295.09;6275034;28;20056;-79
2023/08/03 11:20:29;;;;;;;0.43;0.30;;;;;;;18.83;100.00;99311.03;6281382;28;20380;-79
2023/08/03 11:23:31;;;;;;;5.85;0.40;;;;;;;18.82;100.00;99309.38;6280738;28;20041;-77
2023/08/03 11:26:33;;;;;;;0.30;0.30;;;;;;;18.81;100.00;99309.56;6288311;28;20057;-74
2023/08/03 11:29:36;;;;;;;1.00;0.30;;;;;;;18.82;100.00;99313.88;6263503;28;20057;-72
2023/08/03 11:32:39;;;;;;;0.25;0.25;;;;;;;18.87;100.00;99298.22;6286191;28;20539;-75
2023/08/03 11:35:40;;;;;;;0.32;0.28;;;;;;;18.81;100.00;99307.72;6299248;28;20407;-75
2023/08/03 11:38:42;;;;;;;0.30;0.25;;;;;;;18.84;100.00;99314.53;6293661;28;20049;-76
2023/08/03 11:41:44;;;;;;;0.20;0.20;;;;;;;18.91;100.00;99315.53;6280538;28;20337;-74
2023/08/03 11:44:46;;;;;;;0.30;0.20;;;;;;;18.92;100.00;99306.53;6282121;28;20045;-75
2023/08/03 11:47:49;;;;;;;2.28;0.30;;;;;;;18.90;100.00;99325.34;6284362;28;20048;-75
2023/08/03 11:50:50;;;;;;;0.20;0.20;;;;;;;18.96;100.00;99329.16;6295031;28;20048;-75
2023/08/03 11:53:52;;;;;;;0.43;0.22;;;;;;;18.92;100.00;99336.63;6283708;28;20052;-75
2023/08/03 11:56:54;;;;;;;0.20;0.20;;;;;;;19.13;100.00;99328.09;6296484;28;20060;-74
2023/08/03 11:59:54;;;;;;;0.30;0.30;;;;;;;19.56;100.00;99317.91;6299455;28;20056;-74
2023/08/03 12:02:57;;;;;;;0.55;0.47;;;;;;;19.72;100.00;99339.19;6299040;28;20146;-74
2023/08/03 12:06:02;;;;;;;0.40;0.40;;;;;;;19.85;100.00;99329.78;6299924;28;20048;-74
2023/08/03 12:09:07;;;;;;;0.40;0.40;;;;;;;19.95;100.00;99343.72;6303598;28;20145;-75
2023/08/03 12:12:11;;;;;;;0.28;0.28;;;;;;;19.90;100.00;99322.94;6282583;28;20052;-75
2023/08/03 12:15:13;;;;;;;0.38;0.35;;;;;;;19.65;100.00;99327.56;6291379;28;20052;-75
2023/08/03 12:18:16;;;;;;;0.20;0.20;;;;;;;19.58;100.00;99360.41;6289103;28;20389;-75
2023/08/03 12:21:17;;;;;;;0.50;0.40;;;;;;;19.51;100.00;99346.94;6289162;28;20049;-77
2023/08/03 12:24:18;;;;;;;0.43;0.30;;;;;;;19.53;100.00;99358.25;6291700;28;20045;-76
2023/08/03 12:27:20;;;;;;;0.47;0.45;;;;;;;19.46;100.00;99368.75;6296108;28;20059;-75
2023/08/03 12:30:21;;;;;;;2.80;0.30;;;;;;;19.42;100.00;99371.94;6298811;28;20057;-75
2023/08/03 12:33:24;;;;;;;0.68;0.45;;;;;;;19.32;100.00;99374.81;6294622;28;20040;-75
2023/08/03 12:36:26;;;;;;;1.30;0.65;;;;;;;19.23;100.00;99389.16;6302969;28;20068;-75
2023/08/03 12:39:28;;;;;;;0.47;0.40;;;;;;;19.15;100.00;99387.34;6283164;28;20044;-72
2023/08/03 12:42:29;;;;;;;0.40;0.40;;;;;;;19.18;100.00;99386.19;6286177;28;20053;-75
2023/08/03 12:45:30;;;;;;;0.85;0.60;;;;;;;19.24;100.00;99396.13;6296726;28;20056;-76
2023/08/03 12:48:33;;;;;;;0.52;0.40;;;;;;;19.55;100.00;99392.72;6302873;28;20048;-77
2023/08/03 12:51:36;;;;;;;1.65;0.50;;;;;;;20.24;100.00;99405.19;6299818;28;20052;-75
2023/08/03 12:54:37;;;;;;;0.40;0.40;;;;;;;20.32;100.00;99404.31;6294025;28;20110;-75
2023/08/03 12:57:38;;;;;;;0.52;0.50;;;;;;;20.11;100.00;99417.47;6302548;28;20049;-76
2023/08/03 13:00:40;;;;;;;1.65;0.40;;;;;;;19.82;100.00;99415.47;6302415;28;20078;-76
2023/08/03 13:03:42;;;;;;;0.85;0.60;;;;;;;19.63;100.00;99428.19;6302013;28;20044;-76
2023/08/03 13:06:44;;;;;;;1.42;0.60;;;;;;;19.49;100.00;99423.56;6302492;28;20052;-76
2023/08/03 13:09:45;;;;;;;0.50;0.50;;;;;;;19.44;100.00;99428.53;6299004;28;20052;-76
2023/08/03 13:12:47;;;;;;;2.95;0.63;;;;;;;19.90;100.00;99440.25;6281775;28;20333;-76
2023/08/03 13:15:49;;;;;;;1.38;0.57;;;;;;;20.26;100.00;99435.22;6293551;28;20452;-75
2023/08/03 13:18:52;;;;;;;2.88;0.55;;;;;;;20.47;100.00;99431.91;6301637;28;20056;-74
2023/08/03 13:21:54;;;;;;;0.55;0.55;;;;;;;20.79;100.00;99438.00;6301909;28;20130;-75
2023/08/03 13:24:55;;;;;;;0.73;0.73;;;;;;;21.10;100.00;99445.94;6301453;28;20049;-75
2023/08/03 13:27:56;;;;;;;0.93;0.60;;;;;;;21.13;100.00;99448.25;6301912;28;20064;-76
2023/08/03 13:30:58;;;;;;;0.82;0.50;;;;;;;21.08;100.00;99453.31;6301855;28;20055;-75
2023/08/03 13:34:01;;;;;;;1.27;0.73;;;;;;;20.67;100.00;99442.97;6295450;28;20095;-75
2023/08/03 13:37:02;;;;;;;1.10;0.65;;;;;;;20.35;100.00;99451.16;6281875;28;20071;-76
2023/08/03 13:40:05;;;;;;;0.55;0.50;;;;;;;20.12;100.00;99461.78;6280850;28;20052;-75
2023/08/03 13:43:06;;;;;;;1.20;0.82;;;;;;;20.01;100.00;99463.84;6284405;28;20083;-77
2023/08/03 13:46:08;;;;;;;0.70;0.70;;;;;;;19.80;100.00;99484.94;6287880;28;20127;-78
2023/08/03 13:49:10;;;;;;;1.52;0.80;;;;;;;19.48;100.00;99486.69;6290281;28;20055;-78
2023/08/03 13:52:12;;;;;;;1.00;0.80;;;;;;;19.30;100.00;99488.69;6292519;28;20058;-78
2023/08/03 13:55:13;;;;;;;2.13;1.05;;;;;;;19.24;100.00;99505.34;6294343;28;20049;-78
2023/08/03 13:58:14;;;;;;;1.45;1.20;;;;;;;19.25;100.00;99505.16;6284600;28;20442;-78
2023/08/03 14:01:16;;;;;;;1.33;1.20;;;;;;;19.24;100.00;99513.34;6276154;28;20075;-77
2023/08/03 14:04:20;;;;;;;6.30;1.50;;;;;;;19.24;100.00;99519.50;6292154;28;20048;-78
2023/08/03 14:07:21;;;;;;;1.77;1.27;;;;;;;19.22;100.00;99518.03;6301072;28;20052;-78